createdAt,value
2022-09-07T00:00:56.649Z,18.42
2022-09-07T00:03:24.925Z,18.41
2022-09-07T00:05:53.746Z,18.29
2022-09-07T00:08:23.702Z,18.28
2022-09-07T00:10:56.695Z,18.40
2022-09-07T00:13:26.197Z,18.42
2022-09-07T00:15:55.654Z,18.39
2022-09-07T00:18:23.851Z,18.36
2022-09-07T00:20:59.065Z,18.38
2022-09-07T00:23:28.533Z,18.54
2022-09-07T00:26:00.668Z,18.44
2022-09-07T00:28:28.793Z,18.43
2022-09-07T00:30:58.248Z,18.45
2022-09-07T00:33:26.485Z,18.52
2022-09-07T00:35:54.713Z,18.59
2022-09-07T00:38:22.720Z,18.71
2022-09-07T00:40:50.595Z,18.65
2022-09-07T00:43:30.695Z,18.65
2022-09-07T00:46:00.015Z,18.71
2022-09-07T00:48:33.103Z,18.82
2022-09-07T00:51:06.467Z,18.82
2022-09-07T00:53:38.213Z,18.66
2022-09-07T00:56:07.318Z,18.34
2022-09-07T00:58:37.919Z,18.16
2022-09-07T01:01:07.771Z,17.92
2022-09-07T01:03:41.747Z,17.93
2022-09-07T01:06:16.458Z,18.05
2022-09-07T01:08:44.654Z,18.11
2022-09-07T01:11:13.495Z,18.19
2022-09-07T01:13:43.808Z,18.23
2022-09-07T01:16:19.381Z,18.11
2022-09-07T01:18:58.916Z,18.21
2022-09-07T01:21:30.294Z,18.19
2022-09-07T01:24:38.871Z,18.06
2022-09-07T01:27:52.838Z,18.03
2022-09-07T01:30:23.134Z,18.18
2022-09-07T01:33:09.176Z,18.30
2022-09-07T01:35:49.020Z,18.22
2022-09-07T01:38:23.326Z,18.30
2022-09-07T01:40:58.351Z,18.30
2022-09-07T01:43:34.744Z,18.29
2022-09-07T01:46:07.744Z,18.26
2022-09-07T01:48:39.028Z,18.36
2022-09-07T01:51:13.159Z,18.31
2022-09-07T01:53:46.119Z,18.18
2022-09-07T01:56:17.868Z,18.07
2022-09-07T01:58:54.439Z,18.15
2022-09-07T02:01:27.036Z,18.16
2022-09-07T02:04:01.563Z,18.05
2022-09-07T02:06:38.382Z,18.14
2022-09-07T02:09:11.017Z,18.21
2022-09-07T02:11:42.190Z,18.28
2022-09-07T02:14:16.826Z,18.37
2022-09-07T02:16:51.771Z,18.35
2022-09-07T02:19:22.541Z,18.22
2022-09-07T02:21:57.252Z,18.06
2022-09-07T02:24:29.597Z,17.90
2022-09-07T02:26:59.971Z,17.96
2022-09-07T02:29:31.052Z,18.08
2022-09-07T02:31:59.223Z,18.16
2022-09-07T02:34:27.278Z,18.20
2022-09-07T02:36:56.592Z,18.26
2022-09-07T02:39:24.651Z,18.21
2022-09-07T02:41:52.595Z,17.95
2022-09-07T02:44:22.498Z,17.99
2022-09-07T02:47:01.836Z,18.08
2022-09-07T02:49:46.408Z,18.13
2022-09-07T02:52:24.676Z,18.23
2022-09-07T02:55:04.713Z,18.19
2022-09-07T02:57:47.867Z,17.95
2022-09-07T03:00:20.862Z,17.91
2022-09-07T03:03:01.927Z,18.00
2022-09-07T03:05:41.169Z,18.15
2022-09-07T03:08:13.487Z,18.20
2022-09-07T03:10:42.605Z,18.21
2022-09-07T03:13:20.193Z,18.22
2022-09-07T03:15:50.431Z,18.15
2022-09-07T03:18:23.725Z,18.08
2022-09-07T03:20:51.778Z,18.13
2022-09-07T03:23:20.175Z,17.97
2022-09-07T03:25:48.944Z,18.01
2022-09-07T03:28:17.524Z,18.02
2022-09-07T03:30:47.341Z,18.04
2022-09-07T03:33:16.140Z,18.08
2022-09-07T03:35:46.003Z,18.06
2022-09-07T03:38:14.342Z,18.00
2022-09-07T03:40:42.312Z,18.01
2022-09-07T03:43:10.493Z,18.00
2022-09-07T03:45:38.468Z,18.03
2022-09-07T03:48:06.546Z,18.00
2022-09-07T03:50:34.560Z,18.05
2022-09-07T03:53:03.912Z,17.81
2022-09-07T03:55:31.898Z,17.89
2022-09-07T03:57:59.831Z,17.90
2022-09-07T04:00:27.882Z,17.96
2022-09-07T04:02:56.169Z,17.80
2022-09-07T04:05:24.312Z,17.75
2022-09-07T04:07:52.534Z,17.68
2022-09-07T04:10:22.015Z,17.54
2022-09-07T04:12:50.572Z,17.25
2022-09-07T04:15:18.568Z,17.16
2022-09-07T04:17:46.761Z,17.20
2022-09-07T04:20:14.933Z,17.10
2022-09-07T04:22:43.214Z,17.18
2022-09-07T04:25:11.174Z,17.32
2022-09-07T04:27:40.665Z,17.31
2022-09-07T04:30:10.657Z,17.42
2022-09-07T04:32:38.874Z,17.49
2022-09-07T04:35:08.227Z,17.68
2022-09-07T04:37:36.218Z,17.76
2022-09-07T04:40:04.751Z,17.81
2022-09-07T04:42:32.785Z,17.90
2022-09-07T04:45:02.135Z,17.96
2022-09-07T04:47:30.717Z,17.99
2022-09-07T04:49:58.778Z,18.12
2022-09-07T04:52:26.776Z,18.13
2022-09-07T04:54:54.705Z,18.17
2022-09-07T04:57:25.823Z,17.98
2022-09-07T04:59:55.003Z,17.94
2022-09-07T05:02:24.368Z,18.07
2022-09-07T05:04:52.479Z,18.14
2022-09-07T05:07:20.396Z,18.22
2022-09-07T05:09:48.705Z,18.28
2022-09-07T05:12:16.643Z,18.32
2022-09-07T05:14:44.690Z,18.21
2022-09-07T05:17:12.639Z,18.10
2022-09-07T05:19:41.913Z,17.95
2022-09-07T05:22:10.023Z,17.98
2022-09-07T05:24:38.060Z,17.99
2022-09-07T05:27:06.337Z,17.96
2022-09-07T05:32:22.296Z,17.94
2022-09-07T05:34:53.067Z,17.95
2022-09-07T05:37:21.177Z,18.04
2022-09-07T05:39:49.217Z,18.12
2022-09-07T05:42:17.479Z,18.12
2022-09-07T05:44:45.885Z,18.24
2022-09-07T05:47:14.308Z,18.21
2022-09-07T05:49:42.575Z,18.36
2022-09-07T05:52:11.997Z,18.39
2022-09-07T05:54:40.431Z,18.49
2022-09-07T05:57:08.586Z,18.56
2022-09-07T05:59:36.527Z,18.71
2022-09-07T06:02:04.850Z,18.77
2022-09-07T06:04:33.018Z,18.85
2022-09-07T06:12:38.497Z,19.04
2022-09-07T06:15:07.394Z,18.95
2022-09-07T06:17:35.378Z,18.83
2022-09-07T06:20:04.544Z,18.76
2022-09-07T06:22:32.609Z,18.67
2022-09-07T06:25:01.918Z,18.77
2022-09-07T06:27:30.293Z,18.92
2022-09-07T06:29:58.356Z,19.12
2022-09-07T06:35:10.693Z,19.65
2022-09-07T06:37:38.962Z,19.82
2022-09-07T06:40:10.627Z,19.71
2022-09-07T06:42:38.996Z,19.55
2022-09-07T06:45:07.826Z,19.56
2022-09-07T06:47:35.851Z,19.63
2022-09-07T06:50:03.931Z,19.75
2022-09-07T06:55:21.196Z,19.71
2022-09-07T06:57:49.296Z,19.89
2022-09-07T07:00:17.687Z,20.00
2022-09-07T07:02:45.590Z,20.16
2022-09-07T07:05:13.569Z,20.38
2022-09-07T07:07:41.550Z,20.55
2022-09-07T07:10:10.824Z,20.66
2022-09-07T07:15:08.909Z,20.86
2022-09-07T07:17:37.376Z,20.89
2022-09-07T07:20:06.330Z,21.10
2022-09-07T07:22:49.701Z,21.21
2022-09-07T07:25:17.887Z,21.47
2022-09-07T07:27:47.328Z,21.84
2022-09-07T07:30:16.021Z,22.01
2022-09-07T07:32:45.197Z,22.02
2022-09-07T07:35:14.099Z,22.01
2022-09-07T07:37:42.125Z,21.65
2022-09-07T07:42:42.905Z,21.98
2022-09-07T07:48:00.970Z,22.20
2022-09-07T07:50:30.995Z,22.39
2022-09-07T07:55:47.909Z,22.23
2022-09-07T07:58:15.771Z,22.21
2022-09-07T08:01:00.727Z,22.26
2022-09-07T08:03:29.211Z,22.21
2022-09-07T08:05:57.244Z,22.14
2022-09-07T08:08:25.551Z,22.01
2022-09-07T08:10:53.618Z,21.88
2022-09-07T08:13:25.115Z,22.10
2022-09-07T08:15:59.339Z,21.95
2022-09-07T08:18:27.579Z,21.98
2022-09-07T08:20:55.811Z,22.00
2022-09-07T08:23:23.637Z,22.21
2022-09-07T08:25:52.552Z,22.04
2022-09-07T08:28:20.746Z,22.27
2022-09-07T08:30:48.940Z,22.37
2022-09-07T08:33:18.317Z,22.46
2022-09-07T08:35:56.472Z,22.78
2022-09-07T08:38:24.697Z,23.19
2022-09-07T08:40:53.243Z,23.31
2022-09-07T08:43:32.413Z,23.49
2022-09-07T08:46:07.425Z,23.56
2022-09-07T08:48:36.747Z,23.74
2022-09-07T08:51:12.899Z,23.77
2022-09-07T08:53:46.590Z,23.53
2022-09-07T08:56:22.952Z,23.43
2022-09-07T08:58:53.223Z,23.34
2022-09-07T09:01:38.786Z,23.30
2022-09-07T09:04:16.549Z,23.31
2022-09-07T09:07:02.442Z,23.39
2022-09-07T09:09:41.059Z,23.37
2022-09-07T09:12:19.717Z,23.76
2022-09-07T09:15:00.056Z,23.91
2022-09-07T09:17:35.732Z,23.97
2022-09-07T09:20:16.886Z,24.14
2022-09-07T09:22:45.577Z,23.86
2022-09-07T09:25:20.795Z,23.73
2022-09-07T09:27:49.005Z,23.83
2022-09-07T09:30:19.098Z,23.85
2022-09-07T09:32:48.391Z,24.10
2022-09-07T09:35:23.982Z,24.03
2022-09-07T09:37:51.765Z,24.12
2022-09-07T09:40:23.114Z,24.14
2022-09-07T09:43:03.456Z,24.01
2022-09-07T09:48:32.662Z,24.54
2022-09-07T09:53:57.080Z,24.28
2022-09-07T09:56:38.119Z,23.73
2022-09-07T10:05:27.143Z,23.85
2022-09-07T10:07:57.482Z,24.03
2022-09-07T10:10:27.327Z,24.12
2022-09-07T10:12:56.722Z,23.86
2022-09-07T10:15:40.186Z,23.72
2022-09-07T10:18:21.152Z,23.73
2022-09-07T10:20:49.086Z,23.84
2022-09-07T10:23:25.778Z,24.03
2022-09-07T10:25:53.695Z,23.95
2022-09-07T10:28:23.900Z,24.11
2022-09-07T10:31:13.922Z,24.07
2022-09-07T10:36:45.829Z,24.08
2022-09-07T10:39:19.102Z,24.14
2022-09-07T10:41:54.298Z,24.18
2022-09-07T10:44:34.365Z,24.39
2022-09-07T10:47:07.912Z,24.19
2022-09-07T10:50:21.926Z,24.28
2022-09-07T10:52:44.345Z,24.33
2022-09-07T10:55:19.700Z,24.49
2022-09-07T10:57:58.907Z,24.70
2022-09-07T11:00:31.133Z,24.90
2022-09-07T11:03:28.170Z,24.57
2022-09-07T11:06:06.346Z,24.10
2022-09-07T11:12:01.102Z,24.32
2022-09-07T11:14:32.802Z,24.45
2022-09-07T11:17:02.984Z,24.33
2022-09-07T11:19:36.161Z,24.58
2022-09-07T11:22:16.079Z,24.68
2022-09-07T11:27:45.260Z,24.70
2022-09-07T11:30:24.686Z,24.46
2022-09-07T11:33:02.804Z,24.59
2022-09-07T11:35:43.965Z,24.78
2022-09-07T11:38:20.415Z,24.90
2022-09-07T11:41:00.579Z,25.04
2022-09-07T11:43:32.677Z,25.41
2022-09-07T11:46:05.857Z,25.57
2022-09-07T11:48:38.911Z,25.76
2022-09-07T11:51:14.284Z,26.08
2022-09-07T11:53:46.372Z,26.11
2022-09-07T11:56:19.100Z,26.44
2022-09-07T11:59:01.940Z,26.08
2022-09-07T12:01:41.069Z,26.32
2022-09-07T12:04:47.375Z,26.41
2022-09-07T12:07:51.952Z,26.82
2022-09-07T12:10:40.886Z,26.83
2022-09-07T12:13:33.968Z,26.51
2022-09-07T12:16:07.107Z,26.61
2022-09-07T12:19:10.950Z,26.74
2022-09-07T12:21:42.804Z,26.55
2022-09-07T12:24:39.113Z,26.93
2022-09-07T12:27:27.812Z,27.00
2022-09-07T12:30:30.207Z,26.89
2022-09-07T12:33:06.062Z,26.56
2022-09-07T12:35:40.991Z,26.90
2022-09-07T12:38:42.218Z,27.07
2022-09-07T12:41:23.250Z,27.38
2022-09-07T12:44:08.130Z,27.58
2022-09-07T12:47:00.364Z,27.48
2022-09-07T12:49:43.639Z,27.76
2022-09-07T12:52:35.315Z,27.95
2022-09-07T12:55:27.551Z,27.86
2022-09-07T12:58:05.308Z,27.67
2022-09-07T13:00:50.468Z,28.06
2022-09-07T13:03:54.078Z,27.68
2022-09-07T13:09:31.924Z,28.28
2022-09-07T13:12:01.457Z,28.79
2022-09-07T13:14:30.303Z,28.79
2022-09-07T13:17:43.693Z,28.44
2022-09-07T13:20:34.836Z,28.33
2022-09-07T13:23:21.224Z,28.48
2022-09-07T13:25:51.562Z,27.89
2022-09-07T13:28:28.285Z,27.54
2022-09-07T13:31:21.888Z,27.59
2022-09-07T13:33:50.973Z,28.14
2022-09-07T13:36:37.720Z,28.68
2022-09-07T13:39:13.564Z,28.70
2022-09-07T13:41:47.221Z,28.34
2022-09-07T13:44:25.811Z,28.76
2022-09-07T13:47:19.927Z,28.63
2022-09-07T13:50:05.242Z,28.81
2022-09-07T13:52:47.246Z,28.46
2022-09-07T13:55:27.846Z,28.38
2022-09-07T13:58:08.158Z,28.15
2022-09-07T14:00:36.187Z,28.06
2022-09-07T14:03:08.021Z,28.04
2022-09-07T14:05:36.238Z,28.17
2022-09-07T14:08:04.249Z,28.13
2022-09-07T14:10:33.645Z,28.42
2022-09-07T14:13:08.171Z,28.38
2022-09-07T14:15:39.325Z,28.56
2022-09-07T14:18:12.702Z,28.51
2022-09-07T14:20:44.572Z,28.07
2022-09-07T14:23:21.121Z,27.89
2022-09-07T14:26:20.256Z,28.10
2022-09-07T14:28:50.226Z,27.99
2022-09-07T14:31:21.016Z,28.07
2022-09-07T14:33:52.705Z,28.21
2022-09-07T14:36:42.384Z,28.33
2022-09-07T14:39:13.161Z,28.48
2022-09-07T14:41:43.315Z,28.11
2022-09-07T14:44:30.243Z,28.42
2022-09-07T14:47:00.923Z,28.46
2022-09-07T14:49:29.025Z,28.45
2022-09-07T14:51:56.997Z,28.73
2022-09-07T14:54:28.632Z,28.89
2022-09-07T14:57:04.725Z,28.93
2022-09-07T14:59:42.138Z,28.87
2022-09-07T15:02:35.138Z,28.24
2022-09-07T15:05:27.988Z,28.23
2022-09-07T15:07:57.801Z,27.84
2022-09-07T15:10:32.821Z,27.37
2022-09-07T15:16:27.444Z,28.01
2022-09-07T15:18:57.655Z,28.56
2022-09-07T15:21:27.112Z,28.91
2022-09-07T15:24:00.243Z,28.62
2022-09-07T15:29:30.022Z,29.23
2022-09-07T15:32:12.238Z,28.85
2022-09-07T15:34:44.275Z,28.56
2022-09-07T15:40:04.569Z,28.53
2022-09-07T15:45:23.117Z,28.68
2022-09-07T15:47:56.377Z,28.62
2022-09-07T15:50:27.635Z,28.92
2022-09-07T15:53:00.859Z,28.69
2022-09-07T15:55:29.152Z,28.42
2022-09-07T15:58:11.027Z,28.38
2022-09-07T16:00:42.799Z,28.26
2022-09-07T16:03:18.211Z,28.30
2022-09-07T16:05:46.441Z,28.42
2022-09-07T16:08:25.113Z,28.52
2022-09-07T16:10:55.139Z,28.35
2022-09-07T16:13:24.782Z,28.21
2022-09-07T16:15:52.831Z,28.03
2022-09-07T16:18:24.650Z,27.83
2022-09-07T16:20:57.136Z,27.70
2022-09-07T16:23:25.044Z,27.50
2022-09-07T16:26:00.406Z,27.33
2022-09-07T16:28:29.353Z,27.14
2022-09-07T16:31:00.412Z,26.97
2022-09-07T16:33:36.712Z,26.69
2022-09-07T16:36:09.551Z,26.53
2022-09-07T16:38:47.291Z,26.38
2022-09-07T16:41:20.777Z,26.27
2022-09-07T16:43:51.363Z,26.13
2022-09-07T16:46:21.663Z,26.01
2022-09-07T16:48:51.870Z,25.83
2022-09-07T16:51:26.040Z,25.70
2022-09-07T16:53:56.170Z,25.42
2022-09-07T16:56:26.967Z,25.19
2022-09-07T16:58:57.506Z,24.98
2022-09-07T17:01:27.826Z,24.89
2022-09-07T17:03:57.911Z,24.71
2022-09-07T17:06:33.641Z,24.45
2022-09-07T17:09:01.625Z,24.39
2022-09-07T17:11:31.451Z,24.17
2022-09-07T17:14:04.984Z,24.02
2022-09-07T17:16:34.911Z,23.93
2022-09-07T17:21:55.485Z,23.57
2022-09-07T17:24:25.327Z,23.43
2022-09-07T17:26:55.779Z,23.51
2022-09-07T17:29:23.647Z,23.57
2022-09-07T17:34:40.720Z,23.63
2022-09-07T17:37:09.349Z,23.61
2022-09-07T17:39:38.692Z,23.56
2022-09-07T17:42:09.747Z,23.54
2022-09-07T17:44:38.471Z,23.47
2022-09-07T17:47:06.843Z,23.39
2022-09-07T17:49:34.829Z,23.24
2022-09-07T17:52:04.991Z,23.22
2022-09-07T17:54:32.983Z,23.15
2022-09-07T17:57:01.304Z,23.09
2022-09-07T18:02:17.317Z,22.97
2022-09-07T18:04:45.183Z,22.92
2022-09-07T18:07:15.577Z,22.87
2022-09-07T18:09:43.737Z,22.79
2022-09-07T18:12:11.715Z,22.74
2022-09-07T18:14:41.629Z,22.65
2022-09-07T18:17:09.730Z,22.55
2022-09-07T18:19:38.551Z,22.48
2022-09-07T18:22:08.642Z,22.34
2022-09-07T18:24:39.610Z,22.13
2022-09-07T18:27:07.852Z,22.07
2022-09-07T18:29:35.797Z,21.96
2022-09-07T18:32:08.725Z,21.90
2022-09-07T18:34:37.606Z,21.87
2022-09-07T18:37:06.021Z,21.81
2022-09-07T18:39:35.485Z,21.82
2022-09-07T18:42:05.324Z,21.76
2022-09-07T18:47:27.879Z,21.54
2022-09-07T18:49:56.595Z,21.46
2022-09-07T18:55:12.495Z,21.19
2022-09-07T18:57:41.635Z,21.05
2022-09-07T19:00:16.156Z,20.98
2022-09-07T19:02:47.497Z,20.93
2022-09-07T19:08:04.301Z,20.96
2022-09-07T19:10:35.783Z,20.97
2022-09-07T19:13:05.508Z,20.93
2022-09-07T19:15:37.489Z,20.89
2022-09-07T19:18:06.597Z,20.84
2022-09-07T19:20:35.451Z,20.84
2022-09-07T19:23:03.316Z,20.88
2022-09-07T19:25:31.148Z,20.95
2022-09-07T19:27:58.891Z,20.86
2022-09-07T19:30:28.275Z,20.70
2022-09-07T19:32:57.817Z,20.48
2022-09-07T19:35:28.847Z,20.27
2022-09-07T19:37:56.769Z,20.21
2022-09-07T19:40:25.055Z,20.19
2022-09-07T19:42:52.885Z,20.20
2022-09-07T19:45:20.684Z,20.26
2022-09-07T19:47:50.658Z,20.32
2022-09-07T19:50:19.440Z,20.36
2022-09-07T19:52:47.567Z,20.27
2022-09-07T19:55:15.385Z,20.27
2022-09-07T19:57:46.456Z,20.21
2022-09-07T20:00:15.289Z,20.12
2022-09-07T20:02:43.303Z,20.04
2022-09-07T20:05:14.598Z,19.97
2022-09-07T20:07:42.401Z,19.89
2022-09-07T20:10:10.444Z,19.84
2022-09-07T20:12:38.441Z,19.70
2022-09-07T20:15:06.999Z,19.64
2022-09-07T20:17:35.589Z,19.62
2022-09-07T20:20:04.411Z,19.57
2022-09-07T20:22:33.630Z,19.61
2022-09-07T20:25:01.451Z,19.57
2022-09-07T20:27:30.501Z,19.63
2022-09-07T20:29:58.260Z,19.77
2022-09-07T20:32:28.154Z,19.87
2022-09-07T20:34:56.410Z,19.91
2022-09-07T20:37:27.231Z,19.86
2022-09-07T20:39:56.543Z,19.77
2022-09-07T20:42:24.425Z,19.70
2022-09-07T20:44:53.436Z,19.59
2022-09-07T20:47:21.170Z,19.61
2022-09-07T20:49:49.336Z,19.59
2022-09-07T20:52:17.072Z,19.55
2022-09-07T20:54:44.763Z,19.60
2022-09-07T20:57:14.100Z,19.64
2022-09-07T20:59:41.842Z,19.60
2022-09-07T21:02:10.666Z,19.59
2022-09-07T21:04:38.547Z,19.65
2022-09-07T21:07:06.272Z,19.71
2022-09-07T21:09:33.976Z,19.80
2022-09-07T21:12:01.675Z,19.86
2022-09-07T21:14:30.781Z,19.84
2022-09-07T21:16:58.737Z,19.86
2022-09-07T21:19:26.472Z,19.95
2022-09-07T21:21:54.240Z,20.15
2022-09-07T21:24:23.946Z,20.25
2022-09-07T21:26:52.137Z,20.26
2022-09-07T21:29:22.857Z,20.14
2022-09-07T21:31:53.735Z,20.14
2022-09-07T21:34:22.513Z,20.22
2022-09-07T21:36:50.669Z,20.23
2022-09-07T21:39:19.222Z,20.21
2022-09-07T21:41:46.948Z,20.13
2022-09-07T21:44:16.759Z,20.16
2022-09-07T21:46:44.743Z,20.19
2022-09-07T21:49:13.876Z,20.18
2022-09-07T21:51:41.637Z,20.21
2022-09-07T21:54:09.770Z,20.17
2022-09-07T21:56:37.613Z,20.20
2022-09-07T21:59:06.225Z,20.30
2022-09-07T22:01:34.069Z,20.36
2022-09-07T22:04:03.745Z,20.39
2022-09-07T22:06:33.455Z,20.43
2022-09-07T22:09:02.069Z,20.46
2022-09-07T22:11:30.573Z,20.53
2022-09-07T22:14:00.533Z,20.59
2022-09-07T22:16:28.837Z,20.55
2022-09-07T22:18:57.435Z,20.45
2022-09-07T22:21:27.053Z,20.25
2022-09-07T22:23:58.768Z,20.09
2022-09-07T22:26:28.936Z,20.05
2022-09-07T22:28:56.816Z,19.93
2022-09-07T22:31:25.997Z,19.98
2022-09-07T22:33:56.673Z,20.12
2022-09-07T22:36:26.796Z,20.52
2022-09-07T22:38:57.388Z,20.67
2022-09-07T22:41:27.043Z,20.90
2022-09-07T22:43:55.988Z,21.03
2022-09-07T22:46:26.578Z,21.00
2022-09-07T22:48:55.164Z,20.94
2022-09-07T22:51:25.237Z,20.90
2022-09-07T22:53:53.745Z,20.77
2022-09-07T22:56:25.124Z,20.66
2022-09-07T22:58:55.044Z,20.39
2022-09-07T23:01:23.603Z,20.22
2022-09-07T23:03:51.922Z,20.12
2022-09-07T23:06:27.963Z,20.01
2022-09-07T23:08:57.599Z,19.78
2022-09-07T23:11:27.899Z,19.62
2022-09-07T23:13:57.853Z,19.33
2022-09-07T23:16:27.338Z,19.19
2022-09-07T23:18:55.900Z,18.96
2022-09-07T23:21:23.750Z,18.63
2022-09-07T23:23:52.340Z,18.40
2022-09-07T23:26:20.674Z,18.25
2022-09-07T23:28:53.602Z,18.11
2022-09-07T23:31:21.625Z,18.03
2022-09-07T23:33:50.146Z,17.89
2022-09-07T23:36:18.937Z,17.80
2022-09-07T23:38:47.437Z,17.68
2022-09-07T23:41:15.657Z,17.65
2022-09-07T23:43:44.023Z,17.67
2022-09-07T23:46:14.492Z,17.75
2022-09-07T23:48:44.562Z,17.86
2022-09-07T23:51:12.853Z,17.82
2022-09-07T23:53:40.906Z,17.83
2022-09-07T23:56:09.208Z,17.84
2022-09-07T23:58:36.900Z,17.83
